Time;durP1;ratioP1;P1;durP2;ratioP2;P2;SDS_P1;SDS_P2;PMS_P1;PMS_P2;Temp;Humidity;BMP_temperature;BMP_pressure;BME280_temperature;BME280_humidity;BME280_pressure;Samples;Min_cycle;Max_cycle;Signal;HPM_P1;HPM_P2
2022/10/29 00:00:56;;;;;;;20.27;9.02;;;;;;;13.91;88.78;102053.56;5095657;28;20454;-73
2022/10/29 00:03:25;;;;;;;23.30;8.82;;;;;;;13.90;88.74;102063.28;5095860;28;20566;-72
2022/10/29 00:06:04;;;;;;;22.48;9.00;;;;;;;13.88;89.05;102051.88;5090136;28;20540;-72
2022/10/29 00:08:34;;;;;;;22.30;8.50;;;;;;;13.85;89.11;102051.06;5098797;28;20039;-72
2022/10/29 00:11:18;;;;;;;24.00;8.95;;;;;;;13.84;89.00;102049.34;5091638;28;20048;-72
2022/10/29 00:13:48;;;;;;;21.38;9.00;;;;;;;13.84;89.18;102047.53;5091792;28;20048;-73
2022/10/29 00:16:19;;;;;;;24.70;8.07;;;;;;;13.87;89.03;102051.88;5090774;28;20040;-73
2022/10/29 00:18:47;;;;;;;20.77;8.63;;;;;;;13.84;89.15;102050.19;5101607;28;20056;-73
2022/10/29 00:21:22;;;;;;;24.13;7.97;;;;;;;13.88;89.19;102053.63;5101903;28;20533;-72
2022/10/29 00:23:50;;;;;;;19.27;8.18;;;;;;;13.87;89.05;102050.13;5103087;28;20036;-73
2022/10/29 00:26:20;;;;;;;27.33;9.38;;;;;;;13.87;89.12;102047.47;5110153;28;20040;-73
2022/10/29 00:28:53;;;;;;;20.13;7.75;;;;;;;13.84;88.99;102041.38;5101711;27;20048;-73
2022/10/29 00:31:23;;;;;;;23.95;8.75;;;;;;;13.80;88.89;102036.16;5096291;28;20536;-73
2022/10/29 00:33:53;;;;;;;22.75;8.57;;;;;;;13.76;88.59;102037.13;5092230;27;20540;-73
2022/10/29 00:36:27;;;;;;;22.67;8.73;;;;;;;13.72;88.81;102029.28;5097442;28;20075;-73
2022/10/29 00:38:55;;;;;;;22.00;8.37;;;;;;;13.67;88.78;102034.69;5106021;27;20044;-73
2022/10/29 00:41:29;;;;;;;18.95;8.85;;;;;;;13.65;88.98;102031.22;5106045;27;20044;-73
2022/10/29 00:44:14;;;;;;;21.20;9.20;;;;;;;13.64;88.64;102032.13;5110625;28;20040;-72
2022/10/29 00:46:49;;;;;;;19.20;9.27;;;;;;;13.59;88.68;102034.03;5102720;28;20551;-74
2022/10/29 00:49:19;;;;;;;30.40;10.20;;;;;;;13.56;88.94;102028.78;5103485;28;20044;-73
2022/10/29 00:51:47;;;;;;;29.45;11.35;;;;;;;13.55;88.85;102024.38;5112896;27;20129;-74
2022/10/29 00:54:16;;;;;;;18.20;10.20;;;;;;;13.55;89.11;102019.97;5090253;28;20041;-73
2022/10/29 00:56:53;;;;;;;28.35;12.82;;;;;;;13.55;89.28;102027.94;5095447;28;20051;-73
2022/10/29 00:59:20;;;;;;;25.98;12.02;;;;;;;13.54;89.16;102034.13;5090113;28;20089;-73
2022/10/29 01:01:48;;;;;;;22.95;11.48;;;;;;;13.54;89.47;102043.84;5105599;28;20115;-73
2022/10/29 01:04:17;;;;;;;21.80;10.90;;;;;;;13.53;89.61;102045.63;5103639;28;20048;-73
2022/10/29 01:06:45;;;;;;;18.05;10.52;;;;;;;13.56;89.81;102044.69;5102516;27;20044;-73
2022/10/29 01:09:13;;;;;;;20.45;10.40;;;;;;;13.58;89.95;102041.09;5091184;28;20094;-73
2022/10/29 01:12:32;;;;;;;23.83;10.75;;;;;;;13.62;90.07;102039.25;5101914;28;20055;-72
2022/10/29 01:15:20;;;;;;;22.85;10.65;;;;;;;13.64;89.95;102040.06;5095208;28;20510;-72
2022/10/29 01:18:18;;;;;;;28.92;11.63;;;;;;;13.68;89.97;102035.59;5098275;28;20873;-72
2022/10/29 01:21:33;;;;;;;26.52;11.40;;;;;;;13.70;89.88;102034.63;5106051;27;20044;-72
2022/10/29 01:24:30;;;;;;;29.30;11.63;;;;;;;13.69;89.73;102037.31;5094475;28;20044;-72
2022/10/29 01:27:37;;;;;;;24.63;10.75;;;;;;;13.64;89.69;102035.66;5103742;27;20052;-73
2022/10/29 01:30:12;;;;;;;23.75;10.73;;;;;;;13.60;89.91;102036.63;5112861;27;20501;-73
2022/10/29 01:33:39;;;;;;;24.65;11.27;;;;;;;13.62;90.05;102032.16;5099008;27;20052;-73
2022/10/29 01:36:29;;;;;;;19.92;10.95;;;;;;;13.62;90.15;102023.34;5066699;28;20053;-73
2022/10/29 01:39:13;;;;;;;21.48;10.30;;;;;;;13.62;90.20;102026.00;5100951;28;20088;-73
2022/10/29 01:41:59;;;;;;;22.83;10.88;;;;;;;13.61;90.18;102019.81;5093322;28;20059;-73
2022/10/29 01:44:57;;;;;;;22.13;11.05;;;;;;;13.63;90.15;102012.72;5104377;27;20492;-73
2022/10/29 01:47:31;;;;;;;23.77;13.13;;;;;;;13.64;90.43;102016.22;5079774;28;20105;-72
2022/10/29 01:50:06;;;;;;;19.90;11.38;;;;;;;13.62;90.28;102005.66;5102267;28;20051;-73
2022/10/29 01:52:36;;;;;;;25.25;12.75;;;;;;;13.60;90.14;102003.97;5092610;28;20040;-72
2022/10/29 01:55:04;;;;;;;23.50;11.80;;;;;;;13.59;90.19;102000.44;5094849;28;20095;-74
2022/10/29 01:57:37;;;;;;;27.05;12.80;;;;;;;13.57;90.01;101996.09;5092647;28;20079;-74
2022/10/29 02:00:05;;;;;;;22.17;12.45;;;;;;;13.58;90.14;102000.47;5113337;28;20032;-74
2022/10/29 02:02:46;;;;;;;25.73;12.47;;;;;;;13.59;90.29;101997.78;5091898;27;20047;-75
2022/10/29 02:05:32;;;;;;;26.27;12.63;;;;;;;13.60;90.48;101991.59;5102955;28;20528;-74
2022/10/29 02:08:43;;;;;;;24.83;11.93;;;;;;;13.56;90.25;101989.03;5109773;28;20133;-74
2022/10/29 02:11:57;;;;;;;30.00;12.27;;;;;;;13.51;90.47;101975.91;5090001;27;20140;-74
2022/10/29 02:14:44;;;;;;;24.48;12.60;;;;;;;13.41;90.09;101967.34;5101445;28;20075;-75
2022/10/29 02:17:11;;;;;;;23.17;11.75;;;;;;;13.38;90.35;101985.91;5093837;28;20419;-74
2022/10/29 02:19:39;;;;;;;30.23;13.75;;;;;;;13.34;90.35;101984.22;5092478;28;20468;-74
2022/10/29 02:22:06;;;;;;;26.35;13.00;;;;;;;13.31;90.38;101974.59;5103215;28;20072;-73
2022/10/29 02:24:33;;;;;;;24.67;13.02;;;;;;;13.33;90.86;101979.84;5105820;28;20043;-73
2022/10/29 02:27:00;;;;;;;27.17;13.02;;;;;;;13.33;90.97;101975.44;5099965;28;20040;-73
2022/10/29 02:29:27;;;;;;;30.70;14.00;;;;;;;13.33;90.89;101969.25;5099080;27;20044;-73
2022/10/29 02:31:54;;;;;;;31.77;14.23;;;;;;;13.33;91.04;101971.91;5101108;27;21013;-74
2022/10/29 02:34:21;;;;;;;25.23;13.63;;;;;;;13.30;90.91;101970.19;5094875;27;20036;-73
2022/10/29 02:36:48;;;;;;;29.88;12.73;;;;;;;13.27;91.06;101961.47;5098933;28;20070;-74
2022/10/29 02:39:15;;;;;;;23.80;13.75;;;;;;;13.28;91.10;101963.19;5108213;27;20045;-74
2022/10/29 02:41:42;;;;;;;24.63;13.98;;;;;;;13.28;91.29;101965.84;5097831;27;20283;-74
2022/10/29 02:44:09;;;;;;;27.15;15.65;;;;;;;13.28;91.45;101958.75;5103654;27;20122;-74
2022/10/29 02:46:38;;;;;;;28.55;14.52;;;;;;;13.28;92.14;101956.13;5103897;28;20036;-74
2022/10/29 02:49:06;;;;;;;29.38;15.00;;;;;;;13.28;92.30;101945.53;5105430;27;20136;-73
2022/10/29 02:51:33;;;;;;;27.25;16.80;;;;;;;13.26;92.47;101936.78;5092698;27;20048;-72
2022/10/29 02:54:01;;;;;;;30.48;15.88;;;;;;;13.26;92.58;101930.59;5102580;27;20087;-73
2022/10/29 02:56:28;;;;;;;28.08;15.50;;;;;;;13.25;92.45;101944.72;5112232;27;20051;-72
2022/10/29 02:58:57;;;;;;;28.55;15.93;;;;;;;13.26;92.45;101943.81;5102233;28;20504;-72
2022/10/29 03:01:24;;;;;;;30.23;16.13;;;;;;;13.26;92.46;101935.88;5098714;28;20371;-72
2022/10/29 03:03:51;;;;;;;32.95;15.98;;;;;;;13.27;92.45;101945.56;5108655;28;20063;-72
2022/10/29 03:06:19;;;;;;;29.75;15.02;;;;;;;13.26;92.44;101943.81;5094041;27;20067;-73
2022/10/29 03:08:47;;;;;;;29.27;16.10;;;;;;;13.26;92.80;101936.78;5099996;28;20040;-73
2022/10/29 03:11:14;;;;;;;29.58;15.63;;;;;;;13.24;92.75;101935.94;5099060;28;20052;-73
2022/10/29 03:13:42;;;;;;;35.47;15.27;;;;;;;13.22;92.78;101929.78;5096865;28;20044;-74
2022/10/29 03:16:09;;;;;;;27.15;14.07;;;;;;;13.23;92.89;101928.03;5095221;27;20048;-73
2022/10/29 03:18:36;;;;;;;29.13;14.30;;;;;;;13.20;92.53;101931.59;5099959;28;20044;-73
2022/10/29 03:21:03;;;;;;;32.35;14.35;;;;;;;13.17;92.65;101929.91;5106323;27;20495;-73
2022/10/29 03:23:30;;;;;;;25.27;13.30;;;;;;;13.15;92.71;101926.41;5100510;28;20059;-73
2022/10/29 03:25:57;;;;;;;28.27;14.02;;;;;;;13.13;92.55;101932.66;5091334;27;20037;-73
2022/10/29 03:28:26;;;;;;;24.80;14.32;;;;;;;13.12;92.67;101937.09;5098108;28;20043;-73
2022/10/29 03:30:57;;;;;;;33.85;14.07;;;;;;;13.12;92.77;101936.22;5102653;27;20055;-73
2022/10/29 03:33:25;;;;;;;27.98;13.68;;;;;;;13.10;92.62;101925.66;5091988;28;20047;-73
2022/10/29 03:36:05;;;;;;;32.78;13.75;;;;;;;13.11;92.86;101929.19;5093441;28;20457;-73
2022/10/29 03:38:33;;;;;;;31.25;14.10;;;;;;;13.08;92.86;101923.94;5096120;28;20123;-73
2022/10/29 03:41:07;;;;;;;33.60;14.68;;;;;;;13.07;93.17;101923.09;5098977;27;20577;-73
2022/10/29 03:43:36;;;;;;;31.02;14.30;;;;;;;13.04;93.62;101916.09;5090867;27;20052;-72
2022/10/29 03:46:05;;;;;;;24.58;13.40;;;;;;;13.03;93.36;101924.06;5104335;28;20486;-72
2022/10/29 03:48:33;;;;;;;30.42;13.65;;;;;;;13.02;93.31;101936.44;5104128;28;20455;-72
2022/10/29 03:51:06;;;;;;;31.27;14.48;;;;;;;13.02;93.12;101932.94;5100637;28;20036;-72
2022/10/29 03:53:35;;;;;;;29.73;13.45;;;;;;;13.01;93.46;101924.09;5095880;28;20555;-73
2022/10/29 03:56:06;;;;;;;29.35;14.07;;;;;;;13.00;93.36;101927.66;5110490;27;20042;-74
2022/10/29 03:58:33;;;;;;;32.92;14.25;;;;;;;12.98;93.39;101932.09;5103320;28;20424;-73
2022/10/29 04:01:04;;;;;;;28.77;14.23;;;;;;;12.97;93.48;101926.84;5102464;27;20029;-73
2022/10/29 04:03:34;;;;;;;28.77;13.35;;;;;;;12.91;93.65;101924.38;5096241;28;20036;-73
2022/10/29 04:06:09;;;;;;;24.60;13.50;;;;;;;12.85;93.59;101928.88;5106698;27;20040;-73
2022/10/29 04:08:37;;;;;;;25.90;12.30;;;;;;;12.80;93.55;101925.47;5100711;28;20044;-73
2022/10/29 04:11:04;;;;;;;26.13;13.45;;;;;;;12.77;93.50;101922.88;5090662;28;20106;-72
2022/10/29 04:13:31;;;;;;;25.23;13.07;;;;;;;12.76;93.68;101915.00;5095694;28;20052;-73
2022/10/29 04:15:58;;;;;;;24.88;12.80;;;;;;;12.76;93.72;101912.34;5090827;28;20059;-75
2022/10/29 04:18:26;;;;;;;27.27;13.38;;;;;;;12.77;94.05;101907.00;5092055;28;20074;-75
2022/10/29 04:20:53;;;;;;;27.73;13.88;;;;;;;12.78;94.23;101907.88;5092634;28;20045;-75
2022/10/29 04:23:40;;;;;;;24.52;13.20;;;;;;;12.81;94.45;101908.69;5093741;28;20094;-74
2022/10/29 04:26:27;;;;;;;25.25;12.10;;;;;;;12.86;94.44;101909.44;5110866;28;20122;-73
2022/10/29 04:29:14;;;;;;;28.88;13.60;;;;;;;12.89;94.44;101888.22;5106837;27;20060;-73
2022/10/29 04:31:41;;;;;;;26.08;13.30;;;;;;;12.96;94.65;101885.41;5099545;28;20044;-72
2022/10/29 04:34:08;;;;;;;26.63;14.10;;;;;;;13.01;94.83;101873.81;5103813;28;20048;-72
2022/10/29 04:36:35;;;;;;;31.98;13.77;;;;;;;13.06;95.18;101860.47;5108796;27;20505;-73
2022/10/29 04:39:02;;;;;;;25.75;13.23;;;;;;;13.10;95.78;101866.53;5102317;27;20472;-72
2022/10/29 04:41:33;;;;;;;28.55;12.95;;;;;;;13.11;95.81;101869.19;5102893;28;20044;-73
2022/10/29 04:44:01;;;;;;;26.70;12.90;;;;;;;13.16;95.75;101875.22;5097732;27;20037;-73
2022/10/29 04:46:28;;;;;;;30.48;14.02;;;;;;;13.19;95.73;101879.56;5104327;27;20089;-73
2022/10/29 04:48:55;;;;;;;28.08;13.85;;;;;;;13.22;95.63;101883.94;5107948;27;20047;-73
2022/10/29 04:51:25;;;;;;;29.58;13.85;;;;;;;13.22;95.45;101883.94;5106940;27;20494;-72
2022/10/29 04:53:52;;;;;;;28.15;13.55;;;;;;;13.22;95.30;101871.53;5099182;28;20113;-72
2022/10/29 04:56:22;;;;;;;24.98;12.88;;;;;;;13.24;95.50;101871.50;5114340;27;20050;-72
2022/10/29 04:58:52;;;;;;;33.05;13.02;;;;;;;13.23;95.58;101864.47;5104322;27;20036;-73
2022/10/29 05:01:19;;;;;;;28.88;13.32;;;;;;;13.24;95.74;101866.19;5093576;28;20042;-72
2022/10/29 05:03:46;;;;;;;27.45;13.15;;;;;;;13.24;95.56;101861.78;5109308;28;20040;-71
2022/10/29 05:06:13;;;;;;;29.00;13.27;;;;;;;13.26;95.68;101865.28;5100420;28;20696;-71
2022/10/29 05:08:41;;;;;;;26.15;12.25;;;;;;;13.26;95.50;101867.91;5099240;28;20040;-71
2022/10/29 05:11:08;;;;;;;25.85;12.63;;;;;;;13.27;95.31;101866.13;5105137;27;20505;-72
2022/10/29 05:13:35;;;;;;;26.25;12.63;;;;;;;13.27;95.15;101863.47;5096556;27;20056;-72
2022/10/29 05:16:02;;;;;;;24.98;11.80;;;;;;;13.24;94.98;101869.72;5094388;28;20123;-73
2022/10/29 05:18:29;;;;;;;27.98;11.85;;;;;;;13.20;94.73;101870.69;5109834;28;20057;-73
2022/10/29 05:20:56;;;;;;;30.17;13.10;;;;;;;13.18;94.88;101869.88;5097562;27;20041;-73
2022/10/29 05:23:30;;;;;;;28.70;12.40;;;;;;;13.17;94.97;101865.50;5093129;28;20044;-72
2022/10/29 05:25:57;;;;;;;25.33;12.00;;;;;;;13.16;94.98;101866.41;5100769;28;20043;-74
2022/10/29 05:28:24;;;;;;;26.08;11.50;;;;;;;13.15;94.93;101865.53;5098884;27;20133;-74
2022/10/29 05:30:52;;;;;;;28.33;12.80;;;;;;;13.15;95.00;101854.09;5094814;28;20029;-74
2022/10/29 05:33:23;;;;;;;27.45;11.70;;;;;;;13.09;95.26;101855.09;5102138;28;20553;-73
2022/10/29 05:35:51;;;;;;;23.02;12.45;;;;;;;13.04;95.18;101862.28;5101958;28;20099;-73
2022/10/29 05:38:18;;;;;;;22.45;12.10;;;;;;;13.00;95.08;101864.13;5108716;27;20047;-73
2022/10/29 05:40:45;;;;;;;25.15;12.02;;;;;;;12.96;94.99;101864.22;5093788;28;20049;-73
2022/10/29 05:43:16;;;;;;;30.33;11.30;;;;;;;12.91;95.10;101848.47;5092890;28;20048;-73
2022/10/29 05:45:43;;;;;;;24.30;12.13;;;;;;;12.90;95.50;101852.00;5099816;28;20528;-73
2022/10/29 05:48:11;;;;;;;23.23;12.57;;;;;;;12.87;95.66;101858.25;5099949;28;20053;-71
2022/10/29 05:50:47;;;;;;;26.08;12.50;;;;;;;12.86;95.70;101858.31;5095779;28;20075;-73
2022/10/29 05:53:20;;;;;;;33.20;12.60;;;;;;;12.85;95.61;101859.22;5105717;28;20044;-72
2022/10/29 05:55:47;;;;;;;24.17;11.48;;;;;;;12.79;95.41;101854.94;5113460;27;20044;-72
2022/10/29 05:58:14;;;;;;;25.92;11.57;;;;;;;12.79;95.58;101846.09;5103227;27;20044;-72
2022/10/29 06:00:44;;;;;;;24.67;11.60;;;;;;;12.77;95.92;101851.44;5111066;27;20044;-72
2022/10/29 06:03:14;;;;;;;26.42;10.82;;;;;;;12.76;96.03;101848.84;5100839;27;20045;-72
2022/10/29 06:05:41;;;;;;;24.35;10.75;;;;;;;12.74;95.87;101846.22;5098538;27;20033;-71
2022/10/29 06:08:09;;;;;;;21.60;10.48;;;;;;;12.72;95.69;101845.38;5094795;28;20044;-71
2022/10/29 06:10:36;;;;;;;25.45;11.77;;;;;;;12.69;95.59;101843.69;5092783;28;20040;-72
2022/10/29 06:13:13;;;;;;;22.77;11.38;;;;;;;12.68;95.46;101843.72;5092457;28;20080;-73
2022/10/29 06:15:45;;;;;;;22.35;11.88;;;;;;;12.67;95.85;101840.19;5093813;28;20048;-73
2022/10/29 06:18:12;;;;;;;25.83;12.73;;;;;;;12.70;95.99;101841.91;5097264;28;20560;-73
2022/10/29 06:20:42;;;;;;;27.92;12.20;;;;;;;12.74;96.45;101838.28;5105507;28;20045;-74
2022/10/29 06:23:10;;;;;;;30.67;12.75;;;;;;;12.77;96.77;101835.56;5099826;28;20045;-74
2022/10/29 06:25:37;;;;;;;22.42;12.77;;;;;;;12.79;96.72;101835.53;5092946;28;20045;-73
2022/10/29 06:28:08;;;;;;;21.90;12.23;;;;;;;12.81;96.90;101839.00;5104244;27;20040;-74
2022/10/29 06:30:37;;;;;;;22.13;11.38;;;;;;;12.82;96.79;101824.88;5094008;28;20044;-73
2022/10/29 06:33:04;;;;;;;25.73;11.57;;;;;;;12.82;96.74;101819.59;5102789;28;20044;-72
2022/10/29 06:35:33;;;;;;;24.77;12.40;;;;;;;12.84;96.68;101815.13;5096957;28;20047;-71
2022/10/29 06:38:02;;;;;;;27.23;13.15;;;;;;;12.87;96.87;101818.56;5091752;28;20037;-72
2022/10/29 06:40:40;;;;;;;30.33;13.07;;;;;;;12.93;97.25;101821.94;5109726;28;20047;-71
2022/10/29 06:43:11;;;;;;;23.58;12.93;;;;;;;13.04;97.52;101841.09;5097383;27;20044;-71
2022/10/29 06:45:38;;;;;;;34.67;12.73;;;;;;;13.09;97.49;101828.63;5099386;28;20040;-73
2022/10/29 06:48:06;;;;;;;26.40;12.88;;;;;;;13.17;97.49;101834.59;5099909;28;20048;-73
2022/10/29 06:50:33;;;;;;;29.27;13.23;;;;;;;13.27;97.38;101840.53;5104886;28;20064;-71
2022/10/29 06:53:04;;;;;;;28.27;14.10;;;;;;;13.33;97.35;101845.66;5109282;27;20109;-71
2022/10/29 06:55:33;;;;;;;29.20;12.50;;;;;;;13.42;97.35;101844.59;5101723;28;20044;-71
2022/10/29 06:58:02;;;;;;;23.45;12.45;;;;;;;13.48;97.21;101839.13;5099643;28;20102;-71
2022/10/29 07:00:32;;;;;;;23.98;11.90;;;;;;;13.55;97.28;101847.78;5106848;28;20764;-70
2022/10/29 07:02:59;;;;;;;27.23;11.77;;;;;;;13.61;97.16;101839.66;5096132;28;20044;-72
2022/10/29 07:05:27;;;;;;;28.48;12.43;;;;;;;13.66;97.13;101839.53;5108209;28;20048;-71
2022/10/29 07:07:59;;;;;;;24.25;11.70;;;;;;;13.74;96.84;101847.28;5100098;27;20040;-71
2022/10/29 07:10:30;;;;;;;21.80;11.00;;;;;;;13.80;96.71;101858.59;5102329;27;20045;-71
2022/10/29 07:12:58;;;;;;;28.08;11.85;;;;;;;13.84;96.61;101862.00;5093059;28;20086;-71
2022/10/29 07:15:26;;;;;;;24.75;10.13;;;;;;;13.85;96.11;101854.91;5093867;28;20041;-73
2022/10/29 07:18:06;;;;;;;27.00;11.80;;;;;;;13.87;95.68;101861.06;5110180;27;20044;-73
2022/10/29 07:20:38;;;;;;;21.52;11.48;;;;;;;13.89;95.64;101854.78;5110129;28;20146;-73
2022/10/29 07:23:06;;;;;;;22.00;11.38;;;;;;;13.91;95.63;101855.63;5106424;28;20039;-73
2022/10/29 07:25:36;;;;;;;21.48;11.27;;;;;;;13.92;95.55;101846.75;5100242;28;20042;-73
2022/10/29 07:28:16;;;;;;;20.50;11.10;;;;;;;13.93;95.44;101856.44;5103115;28;20048;-77
2022/10/29 07:30:44;;;;;;;22.15;11.40;;;;;;;13.93;95.27;101848.50;5106165;27;20115;-76
2022/10/29 07:33:11;;;;;;;19.77;10.68;;;;;;;13.95;95.32;101843.16;5111440;27;20123;-77
2022/10/29 07:35:38;;;;;;;24.35;11.02;;;;;;;14.00;95.21;101837.72;5106011;27;20045;-76
2022/10/29 07:38:07;;;;;;;23.67;11.32;;;;;;;14.03;95.04;101843.81;5103567;27;20036;-76
2022/10/29 07:40:44;;;;;;;26.45;11.70;;;;;;;14.04;95.06;101837.56;5097189;27;20044;-76
2022/10/29 07:43:12;;;;;;;20.55;11.00;;;;;;;14.09;95.06;101846.28;5101993;27;20020;-76
2022/10/29 07:45:51;;;;;;;26.70;11.50;;;;;;;14.20;95.15;101847.75;5104338;28;20094;-76
2022/10/29 07:48:20;;;;;;;23.75;11.40;;;;;;;14.36;95.23;101845.50;5103764;27;20048;-76
2022/10/29 07:50:48;;;;;;;19.67;9.85;;;;;;;14.51;94.98;101842.38;5101943;27;20449;-76
2022/10/29 07:53:15;;;;;;;22.50;9.80;;;;;;;14.64;94.82;101837.56;5109940;27;20052;-75
2022/10/29 07:55:42;;;;;;;23.23;10.27;;;;;;;14.75;94.72;101827.50;5098298;27;20045;-75
2022/10/29 07:58:11;;;;;;;21.85;10.15;;;;;;;14.87;94.33;101812.09;5093419;27;20075;-75
2022/10/29 08:00:40;;;;;;;23.65;10.20;;;;;;;14.96;94.06;101822.41;5100823;27;20093;-74
2022/10/29 08:03:11;;;;;;;26.73;10.50;;;;;;;15.00;93.37;101825.84;5098366;27;20040;-74
2022/10/29 08:05:39;;;;;;;20.35;9.98;;;;;;;15.05;93.57;101824.78;5110309;27;20050;-73
2022/10/29 08:08:09;;;;;;;22.33;10.80;;;;;;;15.15;93.37;101819.16;5097541;27;20036;-74
2022/10/29 08:10:38;;;;;;;21.77;10.32;;;;;;;15.27;93.16;101818.69;5092927;27;20036;-73
2022/10/29 08:13:05;;;;;;;23.35;9.65;;;;;;;15.34;93.02;101817.59;5100766;28;20044;-73
2022/10/29 08:15:34;;;;;;;18.35;9.90;;;;;;;15.41;92.43;101826.22;5123697;27;20142;-72
2022/10/29 08:18:08;;;;;;;18.98;8.80;;;;;;;15.49;91.71;101810.00;5099304;27;20040;-73
2022/10/29 08:20:35;;;;;;;;;;;;;;;15.57;91.52;101825.66;5096877;27;20041;-71
2022/10/29 08:23:02;;;;;;;17.55;9.73;;;;;;;15.59;91.42;101814.06;5101785;27;19931;-74
2022/10/29 08:25:30;;;;;;;18.13;10.02;;;;;;;15.58;91.15;101816.78;5098617;27;20048;-72
2022/10/29 08:28:03;;;;;;;16.77;9.88;;;;;;;15.56;90.90;101814.19;5096882;27;20036;-75
2022/10/29 08:30:34;;;;;;;20.77;9.68;;;;;;;15.55;91.04;101803.59;5106823;27;20122;-74
2022/10/29 08:33:03;;;;;;;20.05;10.40;;;;;;;15.65;90.56;101802.34;5100247;27;20048;-74
2022/10/29 08:35:31;;;;;;;17.95;9.90;;;;;;;15.84;90.44;101797.25;5111289;27;20039;-73
2022/10/29 08:37:59;;;;;;;18.77;9.57;;;;;;;15.95;90.31;101800.38;5109560;27;20547;-74
2022/10/29 08:40:52;;;;;;;24.73;10.00;;;;;;;16.07;90.29;101808.81;5103582;27;20536;-72
2022/10/29 08:43:40;;;;;;;18.08;9.63;;;;;;;16.13;90.24;101801.44;5110586;27;20043;-73
2022/10/29 08:46:45;;;;;;;20.27;9.00;;;;;;;16.20;90.01;101806.56;5099898;28;20074;-73
2022/10/29 08:49:17;;;;;;;17.65;8.88;;;;;;;16.25;89.01;101802.78;5108595;27;20985;-72
2022/10/29 08:52:08;;;;;;;21.45;9.43;;;;;;;16.34;89.02;101804.19;5105153;28;20048;-71
2022/10/29 08:54:42;;;;;;;21.15;8.90;;;;;;;16.43;89.04;101800.31;5096625;28;20041;-72
2022/10/29 08:57:16;;;;;;;19.15;9.38;;;;;;;16.58;88.93;101806.81;5110730;27;20055;-71
2022/10/29 09:00:12;;;;;;;20.10;8.68;;;;;;;16.69;88.59;101809.03;5095214;28;20783;-73
2022/10/29 09:02:40;;;;;;;24.63;8.63;;;;;;;16.73;88.37;101800.88;5104526;27;20485;-73
2022/10/29 09:05:15;;;;;;;18.88;9.40;;;;;;;16.81;88.02;101805.03;5093518;27;20048;-72
2022/10/29 09:08:42;;;;;;;20.98;9.10;;;;;;;16.90;87.66;101807.31;5093269;28;20036;-71
2022/10/29 09:12:04;;;;;;;18.52;8.05;;;;;;;17.00;87.50;101799.81;5097495;28;20036;-70
2022/10/29 09:15:05;;;;;;;17.50;8.63;;;;;;;17.17;87.23;101809.75;5104821;28;20494;-71
2022/10/29 09:17:54;;;;;;;23.15;9.10;;;;;;;17.34;86.79;101807.25;5100407;28;20055;-70
2022/10/29 09:20:39;;;;;;;19.48;8.55;;;;;;;17.46;86.81;101804.94;5096482;28;20044;-70
2022/10/29 09:23:26;;;;;;;22.92;7.90;;;;;;;17.56;86.10;101802.75;5111528;28;20048;-70
2022/10/29 09:26:14;;;;;;;20.50;8.05;;;;;;;17.61;85.08;101790.97;5104365;28;20530;-71
2022/10/29 09:29:46;;;;;;;15.27;7.80;;;;;;;17.64;85.06;101781.94;5095171;28;20055;-71
2022/10/29 09:32:51;;;;;;;15.63;7.22;;;;;;;17.70;85.05;101784.34;5106985;28;20590;-70
2022/10/29 09:35:21;;;;;;;19.27;7.57;;;;;;;17.73;84.68;101773.53;5100582;28;20144;-71
2022/10/29 09:38:00;;;;;;;16.80;7.47;;;;;;;17.80;85.06;101777.66;5098777;28;20060;-71
2022/10/29 09:40:39;;;;;;;25.75;8.75;;;;;;;17.91;84.52;101771.81;5102307;28;20047;-70
2022/10/29 09:43:42;;;;;;;20.65;6.97;;;;;;;18.05;84.29;101786.34;5094839;28;20052;-71
2022/10/29 09:46:30;;;;;;;17.60;6.97;;;;;;;18.20;84.12;101782.94;5094788;28;20527;-71
2022/10/29 09:49:34;;;;;;;17.05;6.60;;;;;;;18.31;83.21;101783.31;5092939;28;20543;-71
2022/10/29 09:52:18;;;;;;;13.60;6.68;;;;;;;18.44;83.07;101778.22;5103531;28;20077;-71
2022/10/29 09:54:50;;;;;;;15.53;6.27;;;;;;;18.54;81.87;101783.13;5097719;27;20090;-71
2022/10/29 09:57:30;;;;;;;14.18;6.20;;;;;;;18.59;82.27;101773.94;5093140;28;20041;-71
2022/10/29 10:00:16;;;;;;;16.52;6.35;;;;;;;18.63;81.30;101770.19;5102752;28;20513;-71
2022/10/29 10:02:53;;;;;;;13.93;5.85;;;;;;;18.66;81.30;101757.63;5110681;28;20039;-72
2022/10/29 10:05:34;;;;;;;15.13;6.30;;;;;;;18.67;81.34;101764.72;5100110;27;20539;-71
2022/10/29 10:08:13;;;;;;;14.98;6.32;;;;;;;18.72;81.40;101763.50;5102863;28;20048;-72
2022/10/29 10:11:03;;;;;;;15.85;5.68;;;;;;;18.81;81.22;101751.50;5103488;28;20050;-71
2022/10/29 10:13:48;;;;;;;12.57;4.90;;;;;;;18.91;81.30;101746.56;5098355;27;20741;-71
2022/10/29 10:16:26;;;;;;;15.15;5.55;;;;;;;19.03;81.36;101758.47;5092283;28;20036;-71
2022/10/29 10:18:53;;;;;;;20.23;5.40;;;;;;;19.13;80.46;101750.84;5107098;27;20083;-74
2022/10/29 10:21:32;;;;;;;12.68;5.20;;;;;;;19.23;78.99;101739.56;5099554;27;20048;-73
2022/10/29 10:24:00;;;;;;;13.68;5.47;;;;;;;19.31;79.09;101735.63;5107551;27;20182;-73
2022/10/29 10:26:38;;;;;;;10.32;5.00;;;;;;;19.38;78.64;101731.69;5111057;27;20105;-73
2022/10/29 10:29:16;;;;;;;12.63;5.32;;;;;;;19.44;78.50;101731.34;5110320;27;20527;-74
2022/10/29 10:31:56;;;;;;;16.80;5.40;;;;;;;19.54;77.55;101734.38;5100821;28;20515;-74
2022/10/29 10:34:37;;;;;;;14.57;4.90;;;;;;;19.71;77.53;101742.38;5113599;27;20120;-73
2022/10/29 10:37:09;;;;;;;13.25;4.53;;;;;;;19.94;77.02;101745.59;5098305;27;20148;-73
2022/10/29 10:39:44;;;;;;;11.73;4.45;;;;;;;20.06;75.07;101743.19;5098365;27;20489;-72
2022/10/29 10:42:38;;;;;;;16.02;4.82;;;;;;;20.22;74.13;101744.06;5106424;28;20040;-73
2022/10/29 10:45:38;;;;;;;11.45;4.43;;;;;;;20.22;74.43;101745.88;5101141;27;20479;-72
2022/10/29 10:48:10;;;;;;;10.50;4.70;;;;;;;20.32;73.82;101747.94;5112933;27;20044;-72
2022/10/29 10:50:37;;;;;;;11.57;4.60;;;;;;;20.44;73.61;101745.50;5103947;27;20091;-72
2022/10/29 10:53:18;;;;;;;10.85;5.13;;;;;;;20.45;73.00;101732.03;5095943;27;20523;-73
2022/10/29 10:55:58;;;;;;;14.55;5.00;;;;;;;20.53;72.04;101741.41;5099109;27;20045;-73
2022/10/29 10:58:43;;;;;;;13.85;5.00;;;;;;;20.59;72.41;101733.91;5100195;28;20051;-73
2022/10/29 11:01:39;;;;;;;13.38;4.80;;;;;;;20.67;71.04;101728.09;5096556;28;20527;-72
2022/10/29 11:04:38;;;;;;;13.73;4.47;;;;;;;20.71;71.24;101739.50;5101502;28;20072;-72
2022/10/29 11:07:12;;;;;;;14.00;5.80;;;;;;;20.67;71.82;101737.94;5106033;27;20040;-72
2022/10/29 11:09:45;;;;;;;;;;;;;;;20.76;70.76;101729.38;5108630;27;20053;-73
2022/10/29 11:12:35;;;;;;;;;;;;;;;20.82;69.97;101721.00;5105612;28;19924;-73
2022/10/29 11:15:11;;;;;;;;;;;;;;;20.88;69.99;101717.09;5092822;28;19931;-73
2022/10/29 11:18:03;;;;;;;;;;;;;;;20.90;69.72;101726.75;5105331;27;20019;-74
2022/10/29 11:20:40;;;;;;;;;;;;;;;20.98;69.82;101718.25;5101484;28;19936;-74
2022/10/29 11:23:28;;;;;;;;;;;;;;;21.09;69.43;101715.78;5096720;28;19931;-72
2022/10/29 11:26:07;;;;;;;;;;;;;;;21.25;69.17;101715.72;5100474;28;20403;-73
2022/10/29 11:28:49;;;;;;;;;;;;;;;21.36;68.73;101708.81;5098897;28;19932;-73
2022/10/29 11:31:36;;;;;;;;;;;;;;;21.44;67.30;101703.81;5097762;28;19928;-74
2022/10/29 11:34:36;;;;;;;;;;;;;;;21.45;68.33;101715.41;5109259;27;19973;-71
2022/10/29 11:37:21;;;;;;;;;;;;;;;21.53;68.30;101718.47;5098511;28;19978;-71
2022/10/29 11:39:55;;;;;;;;;;;;;;;21.67;68.42;101728.38;5095109;28;20418;-73
2022/10/29 11:42:22;;;;;;;;;;;;;;;21.74;68.40;101721.66;5094365;28;19959;-73
2022/10/29 11:44:50;;;;;;;;;;;;;;;21.74;67.70;101718.09;5103914;28;19928;-72
2022/10/29 11:47:41;;;;;;;;;;;;;;;21.70;67.92;101714.75;5103373;27;19927;-72
2022/10/29 11:50:19;;;;;;;;;;;;;;;21.82;67.12;101702.38;5102504;28;19927;-72
2022/10/29 11:53:05;;;;;;;;;;;;;;;21.99;67.66;101703.94;5101096;27;19931;-72